createdAt,value
2023-03-20T00:01:00.711Z,63.03
2023-03-20T00:06:02.151Z,67.13
2023-03-20T00:11:03.616Z,60.90
2023-03-20T00:16:05.922Z,60.33
2023-03-20T00:21:17.242Z,60.65
2023-03-20T00:26:19.782Z,63.22
2023-03-20T00:31:25.698Z,61.65
2023-03-20T00:36:28.186Z,58.83
2023-03-20T00:41:39.638Z,58.33
2023-03-20T00:46:41.546Z,53.92
2023-03-20T00:51:42.986Z,52.63
2023-03-20T00:57:03.900Z,49.38
2023-03-20T01:02:06.234Z,51.72
2023-03-20T01:07:12.485Z,45.47
2023-03-20T01:12:15.325Z,47.70
2023-03-20T01:17:22.630Z,45.47
2023-03-20T01:22:24.085Z,49.20
2023-03-20T01:27:25.644Z,46.80
2023-03-20T01:32:27.158Z,46.50
2023-03-20T01:37:28.642Z,43.80
2023-03-20T01:42:30.427Z,42.58
2023-03-20T01:47:31.966Z,43.22
2023-03-20T01:52:33.451Z,42.50
2023-03-20T01:57:34.910Z,41.10
2023-03-20T02:02:38.705Z,39.20
2023-03-20T02:07:40.994Z,38.45
2023-03-20T02:12:44.038Z,35.55
2023-03-20T02:17:45.874Z,35.97
2023-03-20T02:23:24.427Z,30.95
2023-03-20T02:28:59.838Z,33.38
2023-03-20T02:34:29.658Z,39.00
2023-03-20T02:39:58.707Z,36.80
2023-03-20T02:45:16.707Z,34.10
2023-03-20T02:50:23.971Z,32.05
2023-03-20T02:55:35.607Z,35.60
2023-03-20T03:00:54.650Z,32.78
2023-03-20T03:06:00.399Z,37.10
2023-03-20T03:11:06.425Z,33.75
2023-03-20T03:16:15.724Z,32.20
2023-03-20T03:21:18.659Z,31.33
2023-03-20T03:26:27.674Z,30.08
2023-03-20T03:31:30.980Z,31.30
2023-03-20T03:36:44.687Z,30.30
2023-03-20T03:42:03.686Z,31.65
2023-03-20T03:47:21.500Z,30.38
2023-03-20T03:52:25.440Z,29.70
2023-03-20T03:57:36.546Z,27.35
2023-03-20T04:02:38.629Z,30.27
2023-03-20T04:07:40.332Z,29.58
2023-03-20T04:12:44.234Z,29.98
2023-03-20T04:17:46.114Z,27.73
2023-03-20T04:22:47.606Z,26.60
2023-03-20T04:27:49.330Z,30.92
2023-03-20T04:32:50.789Z,30.95
2023-03-20T04:37:52.288Z,29.00
2023-03-20T04:42:53.702Z,26.92
2023-03-20T04:47:55.327Z,26.88
2023-03-20T04:52:56.757Z,23.75
2023-03-20T04:57:58.200Z,25.77
2023-03-20T05:03:00.447Z,22.42
2023-03-20T05:08:01.882Z,22.67
2023-03-20T05:13:03.302Z,21.33
2023-03-20T05:18:04.757Z,19.80
2023-03-20T05:23:06.593Z,30.88
2023-03-20T05:28:08.160Z,22.92
2023-03-20T05:33:09.601Z,24.92
2023-03-20T05:38:11.184Z,23.58
2023-03-20T05:43:12.607Z,20.88
2023-03-20T05:48:14.023Z,24.00
2023-03-20T05:53:16.350Z,25.98
2023-03-20T05:58:17.823Z,22.95
2023-03-20T06:03:19.714Z,22.90
2023-03-20T06:08:21.162Z,22.85
2023-03-20T06:13:22.600Z,26.38
2023-03-20T06:18:24.040Z,21.90
2023-03-20T06:23:25.465Z,20.02
2023-03-20T06:28:26.881Z,22.10
2023-03-20T06:33:28.931Z,22.33
2023-03-20T06:38:30.697Z,23.88
2023-03-20T06:43:32.127Z,24.40
2023-03-20T06:48:33.582Z,22.98
2023-03-20T06:53:35.213Z,20.65
2023-03-20T06:58:36.628Z,19.92
2023-03-20T07:03:38.061Z,23.65
2023-03-20T07:08:40.042Z,21.27
2023-03-20T07:13:41.687Z,19.80
2023-03-20T07:18:43.130Z,21.95
2023-03-20T07:23:44.965Z,25.08
2023-03-20T07:28:46.383Z,21.88
2023-03-20T07:33:47.984Z,22.17
2023-03-20T07:38:49.438Z,24.77
2023-03-20T07:43:51.106Z,24.55
2023-03-20T07:48:52.666Z,21.90
2023-03-20T07:53:54.110Z,22.70
2023-03-20T07:58:55.552Z,24.98
2023-03-20T08:03:57.166Z,26.65
2023-03-20T08:08:58.649Z,27.80
2023-03-20T08:14:00.112Z,32.85
2023-03-20T08:19:02.838Z,32.60
2023-03-20T08:24:04.579Z,29.00
2023-03-20T08:29:06.249Z,32.03
2023-03-20T08:34:07.756Z,30.48
2023-03-20T08:39:09.647Z,31.17
2023-03-20T08:44:12.019Z,31.10
2023-03-20T08:49:13.805Z,26.55
2023-03-20T08:54:18.273Z,26.63
2023-03-20T08:59:19.748Z,28.30
2023-03-20T09:04:21.195Z,28.67
2023-03-20T09:09:29.215Z,31.52
2023-03-20T09:14:30.986Z,28.95
2023-03-20T09:19:32.433Z,28.80
2023-03-20T09:24:33.907Z,26.85
2023-03-20T09:29:35.714Z,28.98
2023-03-20T09:34:37.196Z,28.10
2023-03-20T09:39:38.611Z,24.48
2023-03-20T09:45:08.384Z,26.00
2023-03-20T09:50:25.945Z,20.75
2023-03-20T09:55:36.359Z,21.30
2023-03-20T10:00:40.412Z,20.50
2023-03-20T10:05:49.798Z,19.70
2023-03-20T10:11:16.227Z,20.70
2023-03-20T10:16:35.782Z,21.45
2023-03-20T10:21:44.259Z,21.60
2023-03-20T10:26:48.845Z,20.42
2023-03-20T10:32:13.431Z,20.50
2023-03-20T10:37:27.037Z,18.40
2023-03-20T10:42:33.721Z,16.55
2023-03-20T10:47:39.395Z,16.42
2023-03-20T10:52:42.169Z,15.18
2023-03-20T10:57:49.256Z,16.73
2023-03-20T11:02:50.939Z,15.40
2023-03-20T11:08:02.079Z,16.88
2023-03-20T11:13:38.293Z,18.60
2023-03-20T11:18:42.080Z,13.13
2023-03-20T11:23:43.667Z,10.73
2023-03-20T11:28:58.729Z,9.15
2023-03-20T11:34:15.423Z,10.68
2023-03-20T11:39:34.133Z,10.98
2023-03-20T11:44:36.823Z,10.77
2023-03-20T11:49:52.857Z,12.65
2023-03-20T11:54:59.125Z,14.35
2023-03-20T12:00:07.217Z,13.65
2023-03-20T12:05:28.909Z,15.33
2023-03-20T12:10:37.187Z,17.55
2023-03-20T12:15:43.508Z,16.02
2023-03-20T12:21:02.032Z,15.57
2023-03-20T12:26:15.678Z,14.68
2023-03-20T12:31:30.745Z,17.00
2023-03-20T12:36:35.937Z,16.10
2023-03-20T12:41:57.467Z,15.85
2023-03-20T12:47:39.925Z,15.93
2023-03-20T12:53:11.719Z,15.07
2023-03-20T12:58:43.970Z,15.35
2023-03-20T13:04:03.919Z,16.40
2023-03-20T13:09:16.211Z,13.80
2023-03-20T13:14:24.429Z,13.32
2023-03-20T13:19:37.981Z,10.90
2023-03-20T13:24:50.618Z,16.40
2023-03-20T13:30:34.568Z,12.88
2023-03-20T13:35:51.103Z,6.55
2023-03-20T13:41:00.718Z,3.65
2023-03-20T13:46:09.847Z,4.93
2023-03-20T13:51:29.147Z,2.65
2023-03-20T13:57:08.188Z,2.72
2023-03-20T14:02:38.393Z,3.53
2023-03-20T14:07:44.535Z,3.55
2023-03-20T14:12:49.465Z,5.53
2023-03-20T14:17:52.181Z,4.45
2023-03-20T14:22:53.644Z,7.55
2023-03-20T14:28:13.522Z,7.30
2023-03-20T14:33:14.970Z,8.20
2023-03-20T14:38:35.942Z,11.07
2023-03-20T14:43:52.660Z,6.15
2023-03-20T14:48:55.985Z,4.72
2023-03-20T14:54:24.287Z,6.22
2023-03-20T14:59:25.807Z,10.95
2023-03-20T15:04:29.036Z,6.10
2023-03-20T15:09:34.899Z,3.55
2023-03-20T15:14:43.642Z,2.55
2023-03-20T15:19:45.157Z,3.10
2023-03-20T15:24:55.712Z,2.95
2023-03-20T15:30:00.261Z,3.40
2023-03-20T15:35:04.841Z,3.70
2023-03-20T15:40:49.214Z,5.00
2023-03-20T15:46:14.109Z,4.53
2023-03-20T15:51:21.407Z,4.40
2023-03-20T15:56:27.592Z,3.75
2023-03-20T16:01:31.985Z,4.55
2023-03-20T16:06:33.480Z,2.65
2023-03-20T16:11:38.306Z,2.97
2023-03-20T16:16:40.481Z,3.60
2023-03-20T16:21:47.652Z,2.90
2023-03-20T16:26:51.575Z,3.00
2023-03-20T16:32:05.937Z,3.17
2023-03-20T16:37:22.835Z,4.93
2023-03-20T16:42:28.042Z,4.75
2023-03-20T16:47:38.398Z,4.40
2023-03-20T16:52:47.164Z,4.38
2023-03-20T16:57:51.452Z,3.72
2023-03-20T17:03:01.353Z,7.07
2023-03-20T17:08:12.472Z,6.55
2023-03-20T17:13:15.164Z,6.57
2023-03-20T17:18:16.627Z,7.18
2023-03-20T17:23:21.951Z,6.72
2023-03-20T17:28:31.260Z,5.45
2023-03-20T17:33:33.713Z,6.80
2023-03-20T17:38:35.803Z,8.07
2023-03-20T17:43:37.293Z,8.27
2023-03-20T17:48:39.212Z,8.18
2023-03-20T17:53:40.877Z,6.45
2023-03-20T17:58:44.715Z,7.03
2023-03-20T18:03:46.192Z,10.00
2023-03-20T18:08:47.647Z,8.95
2023-03-20T18:13:49.254Z,7.75
2023-03-20T18:18:51.493Z,10.13
2023-03-20T18:23:52.961Z,8.90
2023-03-20T18:28:55.606Z,8.88
2023-03-20T18:33:57.178Z,10.85
2023-03-20T18:38:58.900Z,11.15
2023-03-20T18:44:00.385Z,13.23
2023-03-20T18:49:01.837Z,13.18
2023-03-20T18:54:03.395Z,11.55
2023-03-20T18:59:07.772Z,14.73
2023-03-20T19:04:09.406Z,12.05
2023-03-20T19:09:12.159Z,12.20
2023-03-20T19:14:14.159Z,15.57
2023-03-20T19:19:15.935Z,14.98
2023-03-20T19:24:21.460Z,17.55
2023-03-20T19:29:23.043Z,18.00
2023-03-20T19:35:14.504Z,17.85
2023-03-20T19:39:46.075Z,11.88
2023-03-20T19:44:47.523Z,13.02
2023-03-20T19:49:48.961Z,13.98
2023-03-20T19:55:02.106Z,13.55
2023-03-20T20:00:55.768Z,13.25
2023-03-20T20:05:31.137Z,13.50
2023-03-20T20:10:41.033Z,19.48
2023-03-20T20:15:42.457Z,18.20
2023-03-20T20:21:28.520Z,17.90
2023-03-20T20:26:09.457Z,18.80
2023-03-20T20:31:10.976Z,17.63
2023-03-20T20:37:17.377Z,19.15
2023-03-20T20:41:34.697Z,20.63
2023-03-20T20:46:36.122Z,21.20
2023-03-20T20:51:37.733Z,22.27
2023-03-20T20:56:40.886Z,21.27
2023-03-20T21:01:42.619Z,25.40
2023-03-20T21:07:08.593Z,24.83
2023-03-20T21:12:06.208Z,26.77
2023-03-20T21:17:09.631Z,28.88
2023-03-20T21:22:13.317Z,27.52
2023-03-20T21:27:15.457Z,27.88
2023-03-20T21:32:19.820Z,30.02
2023-03-20T21:38:22.968Z,28.48
2023-03-20T21:42:42.874Z,27.10
2023-03-20T21:48:33.417Z,29.42
2023-03-20T21:53:56.894Z,27.10
2023-03-20T22:04:45.084Z,26.83
2023-03-20T22:15:20.100Z,24.00
2023-03-20T22:25:53.130Z,28.95
2023-03-20T22:37:01.415Z,27.00
2023-03-20T22:46:46.364Z,29.98
2023-03-20T22:52:07.806Z,32.42
2023-03-20T22:57:09.866Z,30.05
2023-03-20T23:02:11.525Z,31.20
2023-03-20T23:07:13.056Z,32.28
2023-03-20T23:12:14.516Z,33.88
2023-03-20T23:17:15.983Z,30.88
2023-03-20T23:22:17.447Z,32.03
2023-03-20T23:27:19.922Z,36.95
2023-03-20T23:32:21.377Z,38.72
2023-03-20T23:37:23.468Z,39.15
2023-03-20T23:42:30.630Z,39.30
2023-03-20T23:47:43.889Z,38.80
2023-03-20T23:52:57.225Z,38.22
2023-03-20T23:58:02.764Z,37.08
